Time;durP1;ratioP1;P1;durP2;ratioP2;P2;SDS_P1;SDS_P2;PMS_P1;PMS_P2;Temp;Humidity;BMP_temperature;BMP_pressure;BME280_temperature;BME280_humidity;BME280_pressure;Samples;Min_cycle;Max_cycle;Signal;HPM_P1;HPM_P2
2022/04/25 00:00:57;;;;;;;2.00;1.85;;;;;;;;;;4940626;28;20504;-83
2022/04/25 00:03:23;;;;;;;2.50;2.10;;;;;;;;;;4943909;28;20039;-83
2022/04/25 00:05:49;;;;;;;0.45;0.45;;;;;;;;;;4944416;28;20086;-82
2022/04/25 00:08:15;;;;;;;1.00;0.95;;;;;;;;;;4943769;28;20477;-83
2022/04/25 00:10:41;;;;;;;0.77;0.77;;;;;;;;;;4944093;28;20037;-83
2022/04/25 00:13:07;;;;;;;1.13;0.88;;;;;;;;;;4941924;28;20035;-82
2022/04/25 00:15:33;;;;;;;0.43;0.43;;;;;;;;;;4947891;28;20051;-84
2022/04/25 00:17:59;;;;;;;1.65;1.48;;;;;;;;;;4946203;28;20062;-83
2022/04/25 00:20:25;;;;;;;0.87;0.87;;;;;;;;;;4944522;29;20110;-83
2022/04/25 00:22:51;;;;;;;1.00;1.00;;;;;;;;;;4944029;28;20036;-83
2022/04/25 00:25:17;;;;;;;1.07;1.03;;;;;;;;;;4945592;28;20055;-82
2022/04/25 00:27:43;;;;;;;0.63;0.63;;;;;;;;;;4943502;28;20024;-84
2022/04/25 00:30:10;;;;;;;0.50;0.38;;;;;;;;;;4949953;28;20050;-83
2022/04/25 00:32:36;;;;;;;0.10;0.10;;;;;;;;;;4950582;28;20023;-83
2022/04/25 00:35:03;;;;;;;0.38;0.38;;;;;;;;;;4946833;28;20431;-83
2022/04/25 00:37:30;;;;;;;0.55;0.55;;;;;;;;;;4945264;29;20070;-83
2022/04/25 00:39:56;;;;;;;1.63;1.05;;;;;;;;;;4945404;28;20818;-83
2022/04/25 00:42:22;;;;;;;3.42;1.70;;;;;;;;;;4946476;28;20070;-83
2022/04/25 00:44:48;;;;;;;2.97;0.93;;;;;;;;;;4943886;28;20069;-83
2022/04/25 00:47:15;;;;;;;0.70;0.70;;;;;;;;;;4945000;28;20215;-83
2022/04/25 00:49:41;;;;;;;4.18;1.65;;;;;;;;;;4943500;28;20038;-82
2022/04/25 00:52:07;;;;;;;0.95;0.95;;;;;;;;;;4942860;28;20034;-83
2022/04/25 00:54:33;;;;;;;0.43;0.43;;;;;;;;;;4957626;28;20073;-83
2022/04/25 00:57:00;;;;;;;0.63;0.63;;;;;;;;;;4943521;28;20067;-82
2022/04/25 00:59:26;;;;;;;0.37;0.37;;;;;;;;;;4942611;28;20031;-83
2022/04/25 01:01:52;;;;;;;0.50;0.50;;;;;;;;;;4946939;28;20026;-82
2022/04/25 01:04:19;;;;;;;0.60;0.60;;;;;;;;;;4946611;28;20122;-83
2022/04/25 01:06:45;;;;;;;2.22;1.20;;;;;;;;;;4946526;28;20573;-83
2022/04/25 01:09:11;;;;;;;0.97;0.93;;;;;;;;;;4945769;28;20050;-82
2022/04/25 01:11:38;;;;;;;0.50;0.50;;;;;;;;;;4944676;29;20106;-82
2022/04/25 01:14:17;;;;;;;0.68;0.68;;;;;;;;;;4946971;28;20063;-82
2022/04/25 01:16:43;;;;;;;0.50;0.50;;;;;;;;;;4949626;28;20034;-80
2022/04/25 01:19:09;;;;;;;0.47;0.47;;;;;;;;;;4943208;28;20081;-81
2022/04/25 01:21:41;;;;;;;0.93;0.70;;;;;;;;;;4946531;28;20042;-82
2022/04/25 01:29:38;;;;;;;0.80;0.80;;;;;;;;;;4946868;28;19972;-82
2022/04/25 01:32:05;;;;;;;0.20;0.20;;;;;;;;;;4949182;28;20459;-81
2022/04/25 01:34:33;;;;;;;4.07;1.10;;;;;;;;;;4945925;28;20403;-82
2022/04/25 01:37:01;;;;;;;0.77;0.73;;;;;;;;;;4941815;28;20557;-81
2022/04/25 01:39:27;;;;;;;0.43;0.43;;;;;;;;;;4945614;28;20035;-83
2022/04/25 01:41:54;;;;;;;1.00;0.40;;;;;;;;;;4944308;28;20463;-82
2022/04/25 01:44:20;;;;;;;0.52;0.50;;;;;;;;;;4943766;28;20520;-82
2022/04/25 01:46:46;;;;;;;0.73;0.70;;;;;;;;;;4942795;28;20031;-82
2022/04/25 01:49:12;;;;;;;0.67;0.67;;;;;;;;;;4941887;28;20031;-82
2022/04/25 01:51:40;;;;;;;17.33;1.20;;;;;;;;;;4948259;28;20056;-83
2022/04/25 01:54:06;;;;;;;0.20;0.20;;;;;;;;;;4942333;28;20078;-82
2022/04/25 01:56:32;;;;;;;1.50;1.23;;;;;;;;;;4945564;28;20039;-81
2022/04/25 01:58:58;;;;;;;0.40;0.40;;;;;;;;;;4945291;28;20071;-81
2022/04/25 02:01:24;;;;;;;2.60;0.47;;;;;;;;;;4942406;28;20047;-81
2022/04/25 02:03:50;;;;;;;5.35;2.38;;;;;;;;;;4947448;28;20274;-81
2022/04/25 02:06:16;;;;;;;0.40;0.40;;;;;;;;;;4941837;28;20043;-81
2022/04/25 02:08:43;;;;;;;0.30;0.30;;;;;;;;;;4942477;28;20027;-81
2022/04/25 02:11:25;;;;;;;;;;;;;;;;;;4942554;28;20125;-82
2022/04/25 02:13:52;;;;;;;0.98;0.88;;;;;;;;;;4943298;28;20469;-81
2022/04/25 02:16:19;;;;;;;5.95;0.95;;;;;;;;;;4941773;29;20047;-82
2022/04/25 02:18:45;;;;;;;;;;;;;;;;;;4944742;29;20551;-81
2022/04/25 02:21:11;;;;;;;2.65;1.20;;;;;;;;;;4944549;28;19969;-81
2022/04/25 02:23:38;;;;;;;7.18;1.55;;;;;;;;;;4944964;28;20073;-83
2022/04/25 02:26:08;;;;;;;0.77;0.63;;;;;;;;;;4944009;28;20054;-83
2022/04/25 02:28:34;;;;;;;0.20;0.20;;;;;;;;;;4942255;29;20033;-83
2022/04/25 02:31:01;;;;;;;2.00;1.25;;;;;;;;;;4944047;28;20042;-82
2022/04/25 02:33:27;;;;;;;0.85;0.85;;;;;;;;;;4959119;28;20086;-83
2022/04/25 02:35:54;;;;;;;0.77;0.77;;;;;;;;;;4944899;28;20481;-83
2022/04/25 02:38:20;;;;;;;0.70;0.70;;;;;;;;;;4943521;28;20035;-83
2022/04/25 02:41:04;;;;;;;2.20;1.02;;;;;;;;;;4941806;28;20039;-81
2022/04/25 02:43:30;;;;;;;0.30;0.30;;;;;;;;;;4940300;28;20102;-82
2022/04/25 02:45:56;;;;;;;1.13;1.13;;;;;;;;;;4943123;29;20784;-82
2022/04/25 02:48:22;;;;;;;0.90;0.90;;;;;;;;;;4942848;28;20031;-83
2022/04/25 02:50:48;;;;;;;0.73;0.73;;;;;;;;;;4943697;28;20452;-81
2022/04/25 02:53:14;;;;;;;0.90;0.88;;;;;;;;;;4941449;28;20050;-82
2022/04/25 02:55:41;;;;;;;3.55;1.05;;;;;;;;;;4941735;28;20196;-82
2022/04/25 02:58:08;;;;;;;0.85;0.85;;;;;;;;;;4941230;28;20023;-82
2022/04/25 03:00:35;;;;;;;1.70;1.60;;;;;;;;;;4948433;28;20554;-82
2022/04/25 03:03:01;;;;;;;2.20;0.90;;;;;;;;;;4941789;28;20035;-84
2022/04/25 03:05:27;;;;;;;0.65;0.50;;;;;;;;;;4941191;29;20378;-82
2022/04/25 03:07:54;;;;;;;1.02;0.98;;;;;;;;;;4945131;28;20097;-83
2022/04/25 03:10:20;;;;;;;1.65;1.55;;;;;;;;;;4942130;29;20046;-83
2022/04/25 03:12:46;;;;;;;1.20;1.20;;;;;;;;;;4942970;28;20043;-82
2022/04/25 03:15:12;;;;;;;0.45;0.45;;;;;;;;;;4945592;28;20050;-83
2022/04/25 03:17:38;;;;;;;0.97;0.97;;;;;;;;;;4944562;28;20151;-83
2022/04/25 03:20:05;;;;;;;0.77;0.77;;;;;;;;;;4943689;28;20051;-82
2022/04/25 03:22:31;;;;;;;0.60;0.52;;;;;;;;;;4945993;28;20031;-82
2022/04/25 03:24:57;;;;;;;0.45;0.45;;;;;;;;;;4942795;28;20045;-83
2022/04/25 03:27:23;;;;;;;2.23;1.00;;;;;;;;;;4942705;29;20049;-83
2022/04/25 03:29:49;;;;;;;0.77;0.77;;;;;;;;;;4941275;28;20091;-83
2022/04/25 03:32:15;;;;;;;0.38;0.38;;;;;;;;;;4941630;28;20043;-83
2022/04/25 03:34:42;;;;;;;0.30;0.30;;;;;;;;;;4942063;28;20797;-83
2022/04/25 03:37:10;;;;;;;0.90;0.90;;;;;;;;;;4940845;28;20062;-84
2022/04/25 03:39:36;;;;;;;1.10;1.00;;;;;;;;;;4942738;28;20311;-83
2022/04/25 03:42:02;;;;;;;0.85;0.85;;;;;;;;;;4938902;28;20035;-83
2022/04/25 03:44:28;;;;;;;0.60;0.60;;;;;;;;;;4943784;28;20027;-82
2022/04/25 03:46:54;;;;;;;4.35;2.38;;;;;;;;;;4943956;28;20464;-82
2022/04/25 03:49:20;;;;;;;3.05;2.20;;;;;;;;;;4940309;28;20032;-81
2022/04/25 03:51:46;;;;;;;0.35;0.35;;;;;;;;;;4952021;28;20959;-82
2022/04/25 03:57:09;;;;;;;0.60;0.60;;;;;;;;;;4948288;28;20041;-81
2022/04/25 03:57:10;;;;;;;0.98;0.98;;;;;;;;;;4947056;28;20047;-82
2022/04/25 03:59:37;;;;;;;5.20;1.58;;;;;;;;;;4946648;28;20078;-81
2022/04/25 04:02:05;;;;;;;1.00;0.90;;;;;;;;;;4949919;28;20042;-81
2022/04/25 04:04:31;;;;;;;1.38;1.27;;;;;;;;;;4947898;28;20774;-82
2022/04/25 04:06:58;;;;;;;0.47;0.45;;;;;;;;;;4946273;28;20042;-81
2022/04/25 04:12:10;;;;;;;1.40;1.10;;;;;;;;;;4943769;28;20070;-82
2022/04/25 04:14:36;;;;;;;0.32;0.32;;;;;;;;;;4957669;28;20035;-82
2022/04/25 04:17:02;;;;;;;1.05;1.05;;;;;;;;;;4944632;28;20028;-81
2022/04/25 04:19:28;;;;;;;0.95;0.95;;;;;;;;;;4943947;28;20059;-82
2022/04/25 04:21:54;;;;;;;0.77;0.77;;;;;;;;;;4945727;29;20460;-81
2022/04/25 04:24:20;;;;;;;0.45;0.45;;;;;;;;;;4946523;28;20031;-81
2022/04/25 04:26:46;;;;;;;0.67;0.67;;;;;;;;;;4945075;28;20094;-81
2022/04/25 04:29:12;;;;;;;1.50;1.40;;;;;;;;;;4946401;28;20094;-82
2022/04/25 04:31:38;;;;;;;0.75;0.75;;;;;;;;;;4949657;28;20511;-81
2022/04/25 04:34:04;;;;;;;0.20;0.20;;;;;;;;;;4944396;28;20748;-81
2022/04/25 04:36:30;;;;;;;0.60;0.60;;;;;;;;;;4950715;28;20027;-82
2022/04/25 04:38:56;;;;;;;0.50;0.50;;;;;;;;;;4942143;28;20031;-81
2022/04/25 04:41:22;;;;;;;1.00;0.95;;;;;;;;;;4944496;29;20058;-82
2022/04/25 04:43:49;;;;;;;1.00;1.00;;;;;;;;;;4944901;29;20027;-81
2022/04/25 04:46:15;;;;;;;3.97;2.22;;;;;;;;;;4942854;28;20027;-82
2022/04/25 04:48:41;;;;;;;0.80;0.80;;;;;;;;;;4946181;28;20049;-81
2022/04/25 04:51:08;;;;;;;1.17;1.07;;;;;;;;;;4957461;28;20027;-82
2022/04/25 04:53:34;;;;;;;0.93;0.90;;;;;;;;;;4949850;28;20560;-82
2022/04/25 04:56:00;;;;;;;3.60;2.20;;;;;;;;;;4931683;28;20035;-81
2022/04/25 04:58:27;;;;;;;1.15;1.05;;;;;;;;;;4932355;28;20152;-82
2022/04/25 05:00:54;;;;;;;3.28;1.55;;;;;;;;;;4934073;29;21086;-81
2022/04/25 05:03:20;;;;;;;0.40;0.40;;;;;;;;;;4948417;28;20118;-82
2022/04/25 05:05:47;;;;;;;0.45;0.40;;;;;;;;;;4936818;28;20043;-81
2022/04/25 05:08:13;;;;;;;1.70;1.58;;;;;;;;;;4945687;28;20038;-81
2022/04/25 05:10:40;;;;;;;1.00;1.00;;;;;;;;;;4939800;28;20035;-82
2022/04/25 05:13:06;;;;;;;0.45;0.45;;;;;;;;;;4940384;28;20046;-81
2022/04/25 05:15:32;;;;;;;20.83;3.35;;;;;;;;;;4945393;28;20038;-80
2022/04/25 05:18:00;;;;;;;1.23;1.20;;;;;;;;;;4943872;28;20039;-81
2022/04/25 05:20:26;;;;;;;1.23;1.23;;;;;;;;;;4944484;28;20035;-83
2022/04/25 05:22:53;;;;;;;0.85;0.85;;;;;;;;;;4944894;28;20097;-81
2022/04/25 05:25:20;;;;;;;5.45;2.53;;;;;;;;;;4943675;28;20043;-81
2022/04/25 05:27:47;;;;;;;3.60;3.30;;;;;;;;;;4948637;28;20100;-81
2022/04/25 05:30:14;;;;;;;9.35;3.53;;;;;;;;;;4943534;28;20110;-81
2022/04/25 05:32:44;;;;;;;2.38;1.88;;;;;;;;;;4941146;28;20138;-81
2022/04/25 05:35:11;;;;;;;1.65;1.55;;;;;;;;;;4942460;28;20463;-82
2022/04/25 05:37:38;;;;;;;0.75;0.45;;;;;;;;;;4936120;28;20563;-82
2022/04/25 05:40:04;;;;;;;2.85;1.52;;;;;;;;;;4936079;28;20039;-84
2022/04/25 05:42:30;;;;;;;1.55;1.45;;;;;;;;;;4946424;28;20122;-84
2022/04/25 05:44:56;;;;;;;0.68;0.68;;;;;;;;;;4947865;28;20102;-83
2022/04/25 05:47:22;;;;;;;3.40;3.17;;;;;;;;;;4943698;28;20028;-84
2022/04/25 05:52:34;;;;;;;3.03;2.72;;;;;;;;;;4946191;28;20037;-85
2022/04/25 05:55:00;;;;;;;3.03;2.78;;;;;;;;;;4944784;28;20073;-86
2022/04/25 05:57:26;;;;;;;2.90;2.03;;;;;;;;;;4947433;28;20396;-84
2022/04/25 05:59:52;;;;;;;0.70;0.50;;;;;;;;;;4947399;28;20035;-84
2022/04/25 06:02:18;;;;;;;1.02;1.02;;;;;;;;;;4946934;28;20035;-84
2022/04/25 06:04:44;;;;;;;1.67;1.58;;;;;;;;;;4946140;28;20039;-85
2022/04/25 06:07:10;;;;;;;0.63;0.63;;;;;;;;;;4943520;28;20719;-86
2022/04/25 06:09:36;;;;;;;0.45;0.45;;;;;;;;;;4949841;28;20085;-86
2022/04/25 06:12:02;;;;;;;1.20;1.03;;;;;;;;;;4942485;28;20028;-86
2022/04/25 06:14:30;;;;;;;0.95;0.95;;;;;;;;;;4946453;28;20253;-86
2022/04/25 06:16:57;;;;;;;0.47;0.47;;;;;;;;;;4939430;28;20135;-86
2022/04/25 06:19:23;;;;;;;2.03;1.90;;;;;;;;;;4956514;28;20076;-85
2022/04/25 06:21:49;;;;;;;1.07;1.07;;;;;;;;;;4960917;28;20043;-87
2022/04/25 06:24:15;;;;;;;4.03;1.23;;;;;;;;;;4947442;28;20034;-83
2022/04/25 06:26:41;;;;;;;1.77;1.67;;;;;;;;;;4945873;28;20808;-82
2022/04/25 06:29:07;;;;;;;1.37;1.33;;;;;;;;;;4946774;28;20058;-82
2022/04/25 06:31:33;;;;;;;0.87;0.80;;;;;;;;;;4956771;28;20035;-84
2022/04/25 06:33:59;;;;;;;2.08;1.27;;;;;;;;;;4943453;28;20545;-84
2022/04/25 06:36:25;;;;;;;3.03;2.73;;;;;;;;;;4945614;28;20039;-85
2022/04/25 06:38:52;;;;;;;2.07;1.97;;;;;;;;;;4945036;28;20524;-85
2022/04/25 06:41:18;;;;;;;1.17;1.13;;;;;;;;;;4946688;28;20505;-85
2022/04/25 06:43:44;;;;;;;0.90;0.90;;;;;;;;;;4947023;28;20030;-85
2022/04/25 06:46:10;;;;;;;0.33;0.33;;;;;;;;;;4959151;28;20147;-85
2022/04/25 06:48:36;;;;;;;2.17;1.98;;;;;;;;;;4944277;28;20019;-85
2022/04/25 06:51:02;;;;;;;14.87;2.20;;;;;;;;;;4942927;29;20410;-83
2022/04/25 06:53:28;;;;;;;3.33;2.40;;;;;;;;;;4946907;28;20031;-84
2022/04/25 06:55:54;;;;;;;0.30;0.30;;;;;;;;;;4946789;28;20031;-84
2022/04/25 06:58:20;;;;;;;1.20;1.13;;;;;;;;;;4940869;29;20115;-82
2022/04/25 07:00:48;;;;;;;4.90;2.28;;;;;;;;;;4960806;28;20100;-83
2022/04/25 07:03:14;;;;;;;0.90;0.90;;;;;;;;;;4947896;28;20035;-83
2022/04/25 07:05:42;;;;;;;1.60;1.50;;;;;;;;;;4946631;28;20436;-82
2022/04/25 07:08:08;;;;;;;0.50;0.50;;;;;;;;;;4946941;28;20078;-84
2022/04/25 07:10:34;;;;;;;0.43;0.43;;;;;;;;;;4940478;28;20090;-85
2022/04/25 07:13:00;;;;;;;0.55;0.55;;;;;;;;;;4946055;28;20027;-85
2022/04/25 07:15:26;;;;;;;4.63;1.57;;;;;;;;;;4944422;28;20043;-84
2022/04/25 07:17:55;;;;;;;0.60;0.60;;;;;;;;;;4947020;28;20030;-85
2022/04/25 07:20:21;;;;;;;1.80;1.70;;;;;;;;;;4953316;28;20063;-85
2022/04/25 07:31:02;;;;;;;0.77;0.77;;;;;;;;;;4958413;28;20125;-83
2022/04/25 07:33:28;;;;;;;6.47;3.20;;;;;;;;;;4941448;29;20084;-83
2022/04/25 07:35:54;;;;;;;0.57;0.57;;;;;;;;;;4946096;28;20043;-83
2022/04/25 07:38:20;;;;;;;1.40;1.10;;;;;;;;;;4946030;28;20046;-83
2022/04/25 07:40:46;;;;;;;1.92;1.80;;;;;;;;;;4946704;28;20566;-84
2022/04/25 07:43:13;;;;;;;0.95;0.95;;;;;;;;;;4944025;28;20051;-83
2022/04/25 07:45:39;;;;;;;0.80;0.80;;;;;;;;;;4947304;28;20203;-84
2022/04/25 07:48:05;;;;;;;0.82;0.82;;;;;;;;;;4943355;28;20031;-83
2022/04/25 07:50:31;;;;;;;3.90;2.10;;;;;;;;;;4946324;28;20043;-83
2022/04/25 07:52:58;;;;;;;2.47;0.80;;;;;;;;;;4944922;28;20022;-83
2022/04/25 07:55:24;;;;;;;0.28;0.28;;;;;;;;;;4943851;28;20274;-83
2022/04/25 07:57:50;;;;;;;1.40;0.70;;;;;;;;;;4945669;28;20527;-84
2022/04/25 08:00:16;;;;;;;0.50;0.50;;;;;;;;;;4947276;28;20302;-83
2022/04/25 08:02:42;;;;;;;0.23;0.23;;;;;;;;;;4941090;28;20118;-83
2022/04/25 08:05:08;;;;;;;0.50;0.50;;;;;;;;;;4941992;29;20286;-83
2022/04/25 08:07:34;;;;;;;0.30;0.30;;;;;;;;;;4940426;29;20027;-82
2022/04/25 08:10:00;;;;;;;0.90;0.90;;;;;;;;;;4947538;28;20039;-82
2022/04/25 08:18:04;;;;;;;0.43;0.43;;;;;;;;;;4939976;28;20711;-83
2022/04/25 08:20:37;;;;;;;0.68;0.68;;;;;;;;;;4932426;28;20082;-83
2022/04/25 08:23:11;;;;;;;1.95;1.80;;;;;;;;;;4930068;28;20039;-83
2022/04/25 08:25:38;;;;;;;1.80;1.70;;;;;;;;;;4940206;28;20489;-84
2022/04/25 08:28:05;;;;;;;1.02;1.02;;;;;;;;;;4942835;28;20062;-84
2022/04/25 08:30:32;;;;;;;2.38;1.77;;;;;;;;;;4946459;28;20077;-84
2022/04/25 08:32:58;;;;;;;7.22;2.45;;;;;;;;;;4942550;28;20059;-84
2022/04/25 08:35:24;;;;;;;1.45;0.75;;;;;;;;;;4948446;28;20088;-85
2022/04/25 08:37:51;;;;;;;0.88;0.88;;;;;;;;;;4945250;28;20193;-83
2022/04/25 08:40:17;;;;;;;4.32;1.88;;;;;;;;;;4946420;28;20043;-82
2022/04/25 08:42:44;;;;;;;0.43;0.43;;;;;;;;;;4949743;28;20614;-82
2022/04/25 08:45:10;;;;;;;1.27;0.90;;;;;;;;;;4948044;28;20070;-83
2022/04/25 08:47:57;;;;;;;2.05;0.60;;;;;;;;;;4948642;28;20055;-83
2022/04/25 08:50:24;;;;;;;1.23;1.13;;;;;;;;;;4947501;28;20805;-82
2022/04/25 08:52:51;;;;;;;1.33;1.23;;;;;;;;;;4947608;28;20102;-83
2022/04/25 08:55:17;;;;;;;;;;;;;;;;;;4948356;28;20083;-82
2022/04/25 08:57:44;;;;;;;1.38;1.00;;;;;;;;;;4948961;28;19914;-82
2022/04/25 09:00:10;;;;;;;0.98;0.90;;;;;;;;;;4946041;28;20051;-84
2022/04/25 09:02:39;;;;;;;1.77;1.50;;;;;;;;;;4945605;28;20401;-85
2022/04/25 09:05:06;;;;;;;1.48;1.25;;;;;;;;;;4943629;28;20056;-83
2022/04/25 09:07:32;;;;;;;1.15;1.10;;;;;;;;;;4930942;28;20032;-84
2022/04/25 09:09:58;;;;;;;0.93;0.93;;;;;;;;;;4929547;29;20039;-84
2022/04/25 09:12:24;;;;;;;4.13;1.47;;;;;;;;;;4936074;28;20035;-83
2022/04/25 09:14:50;;;;;;;2.20;1.58;;;;;;;;;;4935319;28;20035;-83
2022/04/25 09:17:17;;;;;;;0.52;0.52;;;;;;;;;;4938695;28;20034;-85
2022/04/25 09:19:44;;;;;;;1.38;1.27;;;;;;;;;;4932352;28;20044;-83
2022/04/25 09:22:10;;;;;;;;;;;;;;;;;;4933005;28;20050;-84
2022/04/25 09:24:36;;;;;;;;;;;;;;;;;;4930555;28;20005;-86
2022/04/25 09:27:08;;;;;;;0.77;0.77;;;;;;;;;;4941785;28;20065;-84
2022/04/25 09:29:35;;;;;;;0.95;0.93;;;;;;;;;;4948333;28;20127;-83
2022/04/25 09:32:01;;;;;;;3.15;2.08;;;;;;;;;;4942147;28;20500;-84
2022/04/25 09:37:14;;;;;;;0.75;0.75;;;;;;;;;;4937911;28;20039;-84
2022/04/25 09:39:40;;;;;;;0.95;0.95;;;;;;;;;;4942327;28;20120;-84
2022/04/25 09:42:07;;;;;;;3.93;1.77;;;;;;;;;;4934383;28;20051;-85
2022/04/25 09:44:53;;;;;;;1.38;1.27;;;;;;;;;;4932405;28;20319;-85
2022/04/25 09:47:28;;;;;;;0.70;0.70;;;;;;;;;;4932856;28;20135;-84
2022/04/25 09:50:02;;;;;;;0.57;0.57;;;;;;;;;;4931408;28;20023;-84
2022/04/25 09:52:28;;;;;;;0.82;0.82;;;;;;;;;;4932969;29;20046;-85
2022/04/25 09:54:54;;;;;;;1.35;1.27;;;;;;;;;;4934060;28;20043;-85
2022/04/25 09:57:30;;;;;;;0.28;0.28;;;;;;;;;;4935913;28;20046;-84
2022/04/25 09:59:56;;;;;;;1.23;1.03;;;;;;;;;;4934798;28;20031;-84
2022/04/25 10:02:22;;;;;;;0.80;0.80;;;;;;;;;;4946545;28;20504;-83
2022/04/25 10:04:48;;;;;;;0.28;0.28;;;;;;;;;;4947224;28;20037;-84
2022/04/25 10:07:15;;;;;;;11.80;2.03;;;;;;;;;;4942570;28;20039;-86
2022/04/25 10:09:41;;;;;;;0.55;0.55;;;;;;;;;;4943193;28;20053;-83
2022/04/25 10:12:07;;;;;;;1.02;1.00;;;;;;;;;;4932149;28;20490;-83
2022/04/25 10:14:33;;;;;;;0.35;0.35;;;;;;;;;;4929868;28;20813;-84
2022/04/25 10:17:00;;;;;;;0.20;0.20;;;;;;;;;;4941565;28;20035;-81
2022/04/25 10:19:27;;;;;;;1.67;1.50;;;;;;;;;;4941075;28;20058;-84
2022/04/25 10:21:54;;;;;;;0.65;0.65;;;;;;;;;;4943247;28;20416;-84
2022/04/25 10:24:21;;;;;;;1.50;1.40;;;;;;;;;;4947985;28;20031;-84
2022/04/25 10:26:48;;;;;;;0.77;0.77;;;;;;;;;;4942555;28;20093;-84
2022/04/25 10:29:16;;;;;;;0.28;0.28;;;;;;;;;;4942088;28;20034;-85
2022/04/25 10:31:44;;;;;;;0.40;0.30;;;;;;;;;;4947885;28;20027;-84
2022/04/25 10:34:16;;;;;;;0.50;0.50;;;;;;;;;;4942935;28;20040;-84
2022/04/25 10:36:47;;;;;;;1.65;1.10;;;;;;;;;;4944575;28;20027;-86
2022/04/25 10:39:13;;;;;;;1.75;1.35;;;;;;;;;;4948590;28;20090;-85
2022/04/25 10:44:25;;;;;;;5.63;1.60;;;;;;;;;;4944345;28;20038;-83
2022/04/25 10:47:04;;;;;;;1.57;1.20;;;;;;;;;;4942461;28;20035;-84
2022/04/25 10:49:37;;;;;;;0.85;0.85;;;;;;;;;;4941255;28;20301;-84
2022/04/25 10:52:04;;;;;;;0.70;0.70;;;;;;;;;;4948064;28;20042;-84
2022/04/25 10:54:30;;;;;;;;;;;;;;;;;;4946860;28;20045;-85
2022/04/25 10:57:08;;;;;;;6.78;1.02;;;;;;;;;;4944558;28;19914;-84
2022/04/25 10:59:35;;;;;;;0.93;0.55;;;;;;;;;;4947192;28;20047;-84
2022/04/25 11:02:01;;;;;;;0.73;0.73;;;;;;;;;;4945974;28;20050;-83
2022/04/25 11:04:27;;;;;;;11.77;1.10;;;;;;;;;;4943325;28;20027;-84
2022/04/25 11:07:12;;;;;;;1.45;0.68;;;;;;;;;;4946879;28;20283;-84
2022/04/25 11:09:39;;;;;;;4.50;0.88;;;;;;;;;;4949325;28;20490;-84
2022/04/25 11:12:05;;;;;;;0.35;0.35;;;;;;;;;;4945488;28;20046;-84
2022/04/25 11:14:31;;;;;;;0.73;0.60;;;;;;;;;;4941987;28;20496;-84
2022/04/25 11:17:14;;;;;;;4.47;0.88;;;;;;;;;;4941998;28;20046;-84
2022/04/25 11:19:53;;;;;;;0.55;0.55;;;;;;;;;;4936921;29;20061;-84
2022/04/25 11:22:48;;;;;;;0.90;0.90;;;;;;;;;;4941691;28;20106;-84
2022/04/25 11:25:26;;;;;;;2.30;0.85;;;;;;;;;;4940159;29;20039;-84
2022/04/25 11:28:08;;;;;;;0.20;0.20;;;;;;;;;;4943035;28;20031;-84
2022/04/25 11:30:35;;;;;;;1.20;0.50;;;;;;;;;;4942877;28;20102;-83
2022/04/25 11:33:04;;;;;;;0.77;0.57;;;;;;;;;;4936870;28;20118;-84
2022/04/25 11:35:30;;;;;;;0.63;0.63;;;;;;;;;;4940643;28;20040;-84
2022/04/25 11:37:57;;;;;;;7.85;1.15;;;;;;;;;;4934625;28;20504;-85
2022/04/25 11:40:23;;;;;;;1.55;0.80;;;;;;;;;;4943068;28;20071;-84
2022/04/25 11:42:49;;;;;;;0.22;0.22;;;;;;;;;;4943836;28;20054;-85
2022/04/25 11:45:15;;;;;;;2.28;1.75;;;;;;;;;;4944111;28;20045;-85
2022/04/25 11:47:41;;;;;;;3.58;1.77;;;;;;;;;;4945334;28;20114;-84
2022/04/25 11:50:11;;;;;;;0.73;0.73;;;;;;;;;;4939641;28;20046;-84
2022/04/25 11:52:44;;;;;;;0.40;0.35;;;;;;;;;;4943524;28;20026;-83
2022/04/25 11:55:10;;;;;;;0.45;0.45;;;;;;;;;;4944510;28;20099;-85
2022/04/25 11:57:40;;;;;;;2.35;0.73;;;;;;;;;;4943461;28;20035;-85
2022/04/25 12:00:08;;;;;;;0.30;0.30;;;;;;;;;;4955698;28;20141;-85
2022/04/25 12:02:35;;;;;;;0.93;0.93;;;;;;;;;;4943933;28;20137;-85
2022/04/25 12:05:01;;;;;;;0.28;0.25;;;;;;;;;;4944633;28;20051;-87
2022/04/25 12:07:28;;;;;;;0.10;0.10;;;;;;;;;;4942715;28;20118;-86
2022/04/25 12:15:35;;;;;;;0.93;0.93;;;;;;;;;;4939717;28;20036;-84
2022/04/25 12:18:20;;;;;;;0.52;0.50;;;;;;;;;;4950676;28;20031;-85
2022/04/25 12:20:47;;;;;;;0.52;0.52;;;;;;;;;;4935832;28;20398;-87
2022/04/25 12:23:24;;;;;;;0.38;0.38;;;;;;;;;;4941313;28;20038;-87
2022/04/25 12:25:50;;;;;;;2.80;0.77;;;;;;;;;;4940000;28;20041;-86
2022/04/25 12:28:16;;;;;;;0.82;0.82;;;;;;;;;;4933598;28;20125;-86
2022/04/25 12:30:51;;;;;;;0.20;0.20;;;;;;;;;;4940259;28;20035;-85
2022/04/25 12:33:18;;;;;;;0.55;0.55;;;;;;;;;;4935760;28;20268;-87
2022/04/25 12:35:45;;;;;;;0.90;0.80;;;;;;;;;;4941675;28;20445;-86
2022/04/25 12:38:31;;;;;;;0.52;0.52;;;;;;;;;;4941406;28;20035;-86
2022/04/25 12:40:58;;;;;;;0.55;0.47;;;;;;;;;;4941320;28;20043;-87
2022/04/25 12:43:42;;;;;;;4.38;1.40;;;;;;;;;;4937034;28;20038;-84
2022/04/25 12:46:08;;;;;;;2.20;0.68;;;;;;;;;;4941087;28;20039;-84
2022/04/25 12:48:53;;;;;;;1.63;0.50;;;;;;;;;;4938107;28;20114;-83
2022/04/25 12:51:45;;;;;;;1.30;1.00;;;;;;;;;;4944386;28;20035;-84
2022/04/25 12:54:30;;;;;;;1.73;0.90;;;;;;;;;;4903374;29;20110;-84
2022/04/25 12:57:05;;;;;;;3.58;1.38;;;;;;;;;;4904720;29;20103;-85
2022/04/25 12:59:33;;;;;;;0.17;0.17;;;;;;;;;;4895015;29;20095;-86
2022/04/25 13:02:07;;;;;;;1.65;0.60;;;;;;;;;;4903489;29;20051;-86
2022/04/25 13:04:48;;;;;;;0.52;0.52;;;;;;;;;;4903303;29;20044;-84
2022/04/25 13:07:14;;;;;;;1.40;0.88;;;;;;;;;;4903597;29;20044;-87
2022/04/25 13:09:40;;;;;;;0.50;0.50;;;;;;;;;;4891552;29;20119;-85
2022/04/25 13:12:16;;;;;;;0.30;0.30;;;;;;;;;;4905399;29;20373;-85
2022/04/25 13:14:42;;;;;;;0.80;0.80;;;;;;;;;;4907106;29;20055;-85
2022/04/25 13:17:09;;;;;;;0.10;0.10;;;;;;;;;;4901815;29;20077;-85
2022/04/25 13:19:35;;;;;;;1.15;0.60;;;;;;;;;;4900443;29;20387;-84
2022/04/25 13:22:01;;;;;;;0.68;0.68;;;;;;;;;;4905050;29;20154;-84
2022/04/25 13:24:27;;;;;;;1.50;1.05;;;;;;;;;;4908398;29;20059;-84
2022/04/25 13:26:54;;;;;;;0.60;0.60;;;;;;;;;;4906666;29;20429;-84
2022/04/25 13:29:20;;;;;;;;;;;;;;;;;;4891980;29;20070;-84
2022/04/25 13:31:46;;;;;;;0.32;0.32;;;;;;;;;;4934944;28;19942;-83
2022/04/25 13:34:12;;;;;;;2.90;0.93;;;;;;;;;;4958763;28;20578;-83
2022/04/25 13:36:39;;;;;;;1.00;0.35;;;;;;;;;;4949390;28;20031;-84
2022/04/25 13:39:05;;;;;;;4.28;2.58;;;;;;;;;;4944679;28;20070;-84
2022/04/25 13:41:31;;;;;;;0.70;0.52;;;;;;;;;;4945940;28;20035;-83
2022/04/25 13:43:57;;;;;;;0.37;0.37;;;;;;;;;;4946553;28;20408;-83
2022/04/25 13:46:23;;;;;;;1.23;0.25;;;;;;;;;;4944836;28;20083;-83
2022/04/25 13:48:50;;;;;;;0.50;0.50;;;;;;;;;;4945517;28;20027;-82
2022/04/25 13:51:17;;;;;;;5.15;0.57;;;;;;;;;;4945563;28;20401;-83
2022/04/25 13:53:44;;;;;;;0.40;0.40;;;;;;;;;;4946849;28;20051;-83
2022/04/25 13:56:10;;;;;;;0.38;0.38;;;;;;;;;;4943192;28;20130;-83
2022/04/25 13:58:37;;;;;;;0.50;0.50;;;;;;;;;;4943826;28;20111;-83
2022/04/25 14:01:04;;;;;;;0.20;0.20;;;;;;;;;;4944334;28;20077;-83
2022/04/25 14:03:30;;;;;;;;;;;;;;;;;;4959678;28;20121;-83
2022/04/25 14:05:56;;;;;;;1.08;0.88;;;;;;;;;;4949835;28;20337;-84
2022/04/25 14:08:24;;;;;;;0.68;0.68;;;;;;;;;;4949340;28;20039;-83
2022/04/25 14:10:52;;;;;;;0.45;0.45;;;;;;;;;;4948959;28;20027;-83
2022/04/25 14:13:19;;;;;;;1.10;0.98;;;;;;;;;;4944081;28;20059;-84
2022/04/25 14:15:45;;;;;;;4.88;1.08;;;;;;;;;;4949821;28;20031;-83
2022/04/25 14:18:11;;;;;;;0.85;0.85;;;;;;;;;;4941855;28;20035;-84
2022/04/25 14:20:38;;;;;;;0.43;0.43;;;;;;;;;;4947670;28;20035;-84
2022/04/25 14:23:04;;;;;;;0.95;0.55;;;;;;;;;;4947339;28;20050;-83
2022/04/25 14:25:31;;;;;;;0.10;0.10;;;;;;;;;;4944575;28;20444;-84
2022/04/25 14:27:58;;;;;;;0.40;0.40;;;;;;;;;;4947921;28;20062;-83
2022/04/25 14:30:25;;;;;;;0.25;0.25;;;;;;;;;;4948549;28;20034;-83
2022/04/25 14:32:51;;;;;;;0.57;0.47;;;;;;;;;;4940303;28;20119;-83
2022/04/25 14:35:17;;;;;;;0.95;0.80;;;;;;;;;;4939976;28;20519;-83
2022/04/25 14:37:43;;;;;;;0.43;0.43;;;;;;;;;;4932644;28;20806;-84
2022/04/25 14:40:10;;;;;;;1.35;1.20;;;;;;;;;;4931341;28;20095;-83
2022/04/25 14:42:36;;;;;;;0.88;0.55;;;;;;;;;;4932396;28;20036;-83
2022/04/25 14:45:03;;;;;;;2.28;1.15;;;;;;;;;;4934529;28;20016;-84
2022/04/25 14:47:29;;;;;;;0.43;0.43;;;;;;;;;;4934337;28;20043;-83
2022/04/25 14:55:25;;;;;;;0.38;0.38;;;;;;;;;;4930584;28;20390;-84
2022/04/25 14:57:51;;;;;;;0.40;0.40;;;;;;;;;;4930649;28;20123;-84
2022/04/25 15:00:23;;;;;;;1.75;0.73;;;;;;;;;;4934239;28;20028;-83
2022/04/25 15:02:49;;;;;;;0.28;0.28;;;;;;;;;;4934009;28;20838;-83
2022/04/25 15:05:16;;;;;;;0.60;0.60;;;;;;;;;;4934101;28;20073;-83
2022/04/25 15:07:42;;;;;;;;;;;;;;;;;;4929579;28;20042;-83
2022/04/25 15:10:08;;;;;;;0.40;0.40;;;;;;;;;;4931126;28;19926;-83
2022/04/25 15:12:34;;;;;;;0.88;0.88;;;;;;;;;;4959015;28;20042;-83
2022/04/25 15:15:01;;;;;;;0.43;0.38;;;;;;;;;;4947716;28;20043;-83
2022/04/25 15:17:27;;;;;;;0.47;0.47;;;;;;;;;;4933523;28;20038;-83
2022/04/25 15:19:53;;;;;;;0.52;0.50;;;;;;;;;;4930633;28;20134;-82
2022/04/25 15:22:19;;;;;;;0.25;0.25;;;;;;;;;;4925601;28;20149;-83
2022/04/25 15:24:45;;;;;;;0.63;0.50;;;;;;;;;;4930830;28;20059;-82
2022/04/25 15:27:11;;;;;;;0.30;0.30;;;;;;;;;;4930832;28;20275;-84
2022/04/25 15:29:37;;;;;;;0.30;0.30;;;;;;;;;;4930628;28;20028;-85